Time;durP1;ratioP1;P1;durP2;ratioP2;P2;SDS_P1;SDS_P2;PMS_P1;PMS_P2;Temp;Humidity;BMP_temperature;BMP_pressure;BME280_temperature;BME280_humidity;BME280_pressure;Samples;Min_cycle;Max_cycle;Signal;HPM_P1;HPM_P2
2022/05/11 00:02:06;;;;;;;11.93;5.78;;;13.60;99.90;;;;;;5127748;27;20058;-74
2022/05/11 00:04:32;;;;;;;13.88;6.38;;;13.70;99.90;;;;;;5128300;27;20055;-74
2022/05/11 00:06:58;;;;;;;12.35;4.80;;;15.00;99.90;;;;;;5092460;27;20047;-75
2022/05/11 00:09:24;;;;;;;11.13;6.15;;;13.70;99.90;;;;;;5109741;27;20050;-74
2022/05/11 00:11:50;;;;;;;11.40;5.40;;;13.70;99.90;;;;;;5109651;27;20074;-75
2022/05/11 00:14:16;;;;;;;13.93;5.63;;;13.70;99.90;;;;;;5127366;27;20147;-75
2022/05/11 00:16:41;;;;;;;8.13;5.00;;;13.70;99.90;;;;;;5129002;27;20039;-74
2022/05/11 00:19:07;;;;;;;10.57;5.15;;;13.70;99.90;;;;;;5127634;27;20482;-74
2022/05/11 00:21:33;;;;;;;11.65;5.63;;;13.70;99.90;;;;;;5128441;27;20047;-74
2022/05/11 00:23:59;;;;;;;9.77;5.72;;;13.80;99.90;;;;;;5127429;27;20035;-75
2022/05/11 00:26:25;;;;;;;10.85;5.80;;;13.70;99.90;;;;;;5127776;27;20088;-75
2022/05/11 00:28:51;;;;;;;10.43;4.93;;;13.70;99.90;;;;;;5127768;27;20052;-75
2022/05/11 00:31:17;;;;;;;14.10;5.65;;;13.70;99.90;;;;;;5108713;27;20123;-75
2022/05/11 00:33:42;;;;;;;9.25;5.97;;;13.80;99.90;;;;;;5128506;27;20054;-75
2022/05/11 00:36:11;;;;;;;12.63;5.95;;;13.70;99.90;;;;;;5126796;27;20047;-75
2022/05/11 00:38:36;;;;;;;11.60;5.28;;;12.90;99.90;;;;;;5109546;27;20041;-75
2022/05/11 00:41:02;;;;;;;14.27;6.40;;;13.80;99.90;;;;;;5108985;27;20526;-75
2022/05/11 00:43:40;;;;;;;12.88;6.20;;;13.80;99.90;;;;;;5127577;27;20114;-75
2022/05/11 00:46:27;;;;;;;14.90;5.75;;;13.80;99.90;;;;;;5092752;27;20394;-76
2022/05/11 00:51:47;;;;;;;8.40;5.13;;;13.80;99.90;;;;;;5126851;27;20059;-75
2022/05/11 00:54:17;;;;;;;5.20;3.70;;;13.80;99.90;;;;;;5109240;27;20241;-75
2022/05/11 00:56:51;;;;;;;12.68;6.30;;;13.80;99.90;;;;;;5127125;27;20516;-74
2022/05/11 00:59:21;;;;;;;9.25;5.50;;;13.80;99.90;;;;;;5127758;27;20557;-75
2022/05/11 01:01:48;;;;;;;11.40;6.10;;;13.80;99.90;;;;;;5126605;27;20031;-75
2022/05/11 01:04:17;;;;;;;11.40;5.80;;;13.70;99.90;;;;;;5108896;27;20103;-75
2022/05/11 01:06:43;;;;;;;9.45;5.00;;;14.30;99.90;;;;;;5126619;27;20483;-75
2022/05/11 01:09:10;;;;;;;9.52;5.05;;;13.80;99.90;;;;;;5126677;27;20043;-75
2022/05/11 01:11:41;;;;;;;10.43;5.40;;;13.80;99.90;;;;;;5126739;27;20067;-75
2022/05/11 01:14:10;;;;;;;10.48;5.43;;;14.30;99.90;;;;;;5107489;27;20646;-75
2022/05/11 01:16:36;;;;;;;8.75;4.95;;;13.80;99.90;;;;;;5127479;27;20093;-75
2022/05/11 01:19:05;;;;;;;10.48;5.45;;;13.80;99.90;;;;;;5126455;27;20125;-75
2022/05/11 01:21:45;;;;;;;11.02;5.20;;;13.80;99.90;;;;;;5126638;27;20039;-75
2022/05/11 01:24:27;;;;;;;12.57;5.32;;;14.50;99.90;;;;;;5126684;27;20039;-75
2022/05/11 01:26:55;;;;;;;4.72;3.20;;;12.70;99.90;;;;;;5126213;27;20441;-75
2022/05/11 01:29:20;;;;;;;8.45;5.25;;;14.90;99.90;;;;;;5127266;27;20039;-75
2022/05/11 01:31:46;;;;;;;7.22;4.70;;;13.80;99.90;;;;;;5126102;27;20059;-75
2022/05/11 01:34:16;;;;;;;11.43;5.10;;;13.70;99.90;;;;;;5126537;27;20159;-75
2022/05/11 01:36:43;;;;;;;7.72;5.53;;;13.80;99.90;;;;;;5107714;27;20051;-75
2022/05/11 01:39:10;;;;;;;8.48;5.40;;;14.90;99.90;;;;;;5126215;27;20066;-75
2022/05/11 01:41:39;;;;;;;14.23;5.32;;;13.80;99.90;;;;;;5108568;27;20039;-75
2022/05/11 01:44:12;;;;;;;8.55;5.35;;;13.70;99.90;;;;;;5125430;27;20047;-75
2022/05/11 01:46:38;;;;;;;13.00;5.32;;;13.70;99.90;;;;;;5126679;27;20347;-75
2022/05/11 01:49:06;;;;;;;14.38;5.45;;;13.70;99.90;;;;;;5107315;27;20043;-75
2022/05/11 01:51:32;;;;;;;9.63;5.38;;;13.70;99.90;;;;;;5126275;27;20217;-75
2022/05/11 01:53:57;;;;;;;13.48;5.03;;;13.70;99.90;;;;;;5126161;27;20070;-75
2022/05/11 01:56:25;;;;;;;8.20;4.82;;;14.50;99.90;;;;;;5125654;27;20514;-75
2022/05/11 01:58:52;;;;;;;10.13;5.72;;;14.30;99.90;;;;;;5107957;27;20122;-75
2022/05/11 02:01:23;;;;;;;9.43;4.53;;;13.70;99.90;;;;;;5124898;27;20046;-76
2022/05/11 02:03:49;;;;;;;9.35;5.20;;;13.70;99.90;;;;;;5125585;27;20082;-76
2022/05/11 02:09:13;;;;;;;5.45;4.40;;;13.70;99.90;;;;;;5068576;27;20135;-75
2022/05/11 02:11:39;;;;;;;9.00;4.68;;;13.70;99.90;;;;;;5126085;27;20082;-75
2022/05/11 02:14:05;;;;;;;8.75;4.60;;;13.60;99.90;;;;;;5124957;27;20047;-75
2022/05/11 02:16:32;;;;;;;8.73;4.88;;;13.70;99.90;;;;;;5126386;27;20039;-75
2022/05/11 02:18:58;;;;;;;6.82;4.57;;;13.70;99.90;;;;;;5125474;27;20152;-74
2022/05/11 02:21:24;;;;;;;9.95;4.65;;;14.60;99.90;;;;;;5126116;27;20197;-74
2022/05/11 02:23:51;;;;;;;7.97;4.72;;;14.00;99.90;;;;;;5107243;27;20078;-75
2022/05/11 02:26:21;;;;;;;11.55;5.03;;;13.70;99.90;;;;;;5106246;27;20039;-75
2022/05/11 02:28:48;;;;;;;10.52;5.20;;;13.80;99.90;;;;;;5126405;27;20047;-75
2022/05/11 02:31:14;;;;;;;8.10;5.28;;;13.70;99.90;;;;;;5089351;27;20051;-75
2022/05/11 02:33:40;;;;;;;8.82;4.80;;;14.20;99.90;;;;;;5126240;27;20467;-76
2022/05/11 02:36:06;;;;;;;9.82;4.60;;;14.40;99.90;;;;;;5124671;27;20534;-75
2022/05/11 02:38:36;;;;;;;11.40;5.30;;;13.70;99.90;;;;;;5125252;27;20032;-75
2022/05/11 02:41:03;;;;;;;5.75;4.30;;;13.70;99.90;;;;;;5125632;28;20047;-75
2022/05/11 02:43:29;;;;;;;11.60;5.47;;;13.70;99.90;;;;;;5089064;28;20498;-75
2022/05/11 02:45:54;;;;;;;9.77;5.15;;;13.70;99.90;;;;;;5126147;28;20122;-75
2022/05/11 02:48:23;;;;;;;10.05;5.55;;;13.60;99.90;;;;;;5106096;28;20506;-75
2022/05/11 02:50:53;;;;;;;7.93;4.85;;;14.70;99.90;;;;;;5126003;28;20047;-74
2022/05/11 02:53:19;;;;;;;8.45;4.93;;;14.20;99.90;;;;;;5125004;28;20537;-75
2022/05/11 02:55:49;;;;;;;11.27;5.45;;;14.70;99.90;;;;;;5125336;28;20051;-75
2022/05/11 02:58:18;;;;;;;8.00;4.78;;;13.60;99.90;;;;;;5125261;28;20529;-75
2022/05/11 03:00:47;;;;;;;11.07;4.68;;;13.60;99.90;;;;;;5124550;28;20043;-75
2022/05/11 03:03:14;;;;;;;9.77;4.32;;;13.60;99.90;;;;;;5125846;28;20096;-75
2022/05/11 03:05:41;;;;;;;10.43;5.20;;;13.90;99.90;;;;;;5106632;28;20043;-75
2022/05/11 03:08:08;;;;;;;9.30;5.13;;;13.60;99.90;;;;;;5107107;28;20540;-75
2022/05/11 03:10:34;;;;;;;5.22;4.45;;;13.60;99.90;;;;;;5125149;28;20050;-75
2022/05/11 03:13:02;;;;;;;7.90;4.63;;;14.90;99.90;;;;;;5089016;28;20048;-75
2022/05/11 03:15:29;;;;;;;11.13;5.05;;;13.60;99.90;;;;;;5108126;27;20047;-75
2022/05/11 03:17:55;;;;;;;6.18;4.07;;;14.80;99.90;;;;;;5128516;27;20039;-74
2022/05/11 03:20:23;;;;;;;6.57;4.55;;;13.60;99.90;;;;;;5129726;27;20444;-75
2022/05/11 03:22:50;;;;;;;6.95;4.80;;;13.60;99.90;;;;;;5128431;27;20051;-75
2022/05/11 03:25:16;;;;;;;9.05;4.32;;;13.60;99.90;;;;;;5129146;27;20039;-75
2022/05/11 03:27:42;;;;;;;7.80;4.20;;;14.50;99.90;;;;;;5128923;27;20444;-75
2022/05/11 03:30:08;;;;;;;12.50;5.25;;;13.50;99.90;;;;;;5128520;27;20057;-75
2022/05/11 03:35:19;;;;;;;6.35;3.53;;;13.50;99.90;;;;;;5109781;27;20091;-75
2022/05/11 03:37:45;;;;;;;6.78;3.95;;;13.50;99.90;;;;;;5129282;27;20039;-75
2022/05/11 03:40:12;;;;;;;9.07;4.13;;;14.00;99.90;;;;;;5109598;27;20044;-75
2022/05/11 03:42:39;;;;;;;9.18;4.13;;;13.50;99.90;;;;;;5109980;27;20179;-75
2022/05/11 03:45:18;;;;;;;6.75;4.18;;;13.50;99.90;;;;;;5128584;27;20039;-75
2022/05/11 03:47:45;;;;;;;6.85;3.80;;;13.50;99.90;;;;;;5109117;27;20590;-75
2022/05/11 03:50:11;;;;;;;8.63;4.00;;;13.50;99.90;;;;;;5110327;27;20402;-75
2022/05/11 03:52:37;;;;;;;7.22;3.70;;;14.20;99.90;;;;;;5127705;27;20039;-75
2022/05/11 03:55:06;;;;;;;7.25;3.95;;;13.50;99.90;;;;;;5128898;27;20039;-74
2022/05/11 03:57:33;;;;;;;12.15;3.72;;;13.50;99.90;;;;;;5109789;27;20046;-74
2022/05/11 03:59:59;;;;;;;7.40;3.15;;;14.40;99.90;;;;;;5128177;27;20054;-74
2022/05/11 04:02:25;;;;;;;10.57;3.90;;;13.50;99.90;;;;;;5128318;27;20035;-74
2022/05/11 04:04:51;;;;;;;10.55;3.63;;;13.50;99.90;;;;;;5126827;27;20045;-74
2022/05/11 04:07:17;;;;;;;8.15;3.53;;;13.60;99.90;;;;;;5110333;27;20039;-75
2022/05/11 04:09:42;;;;;;;7.13;3.90;;;13.60;99.90;;;;;;5109274;27;20042;-74
2022/05/11 04:12:09;;;;;;;7.25;3.75;;;14.60;99.90;;;;;;5092301;27;20411;-74
2022/05/11 04:14:34;;;;;;;5.40;3.45;;;13.60;99.90;;;;;;5127866;27;20063;-74
2022/05/11 04:17:00;;;;;;;5.90;3.38;;;13.60;99.90;;;;;;5127887;27;20186;-74
2022/05/11 04:19:26;;;;;;;10.90;4.13;;;13.60;99.90;;;;;;5109868;27;20047;-74
2022/05/11 04:21:52;;;;;;;8.23;3.65;;;13.60;99.90;;;;;;5126933;27;20039;-75
2022/05/11 04:24:18;;;;;;;7.47;3.13;;;13.60;99.90;;;;;;5109591;27;20054;-74
2022/05/11 04:26:44;;;;;;;8.05;3.65;;;13.60;99.90;;;;;;5107903;28;20084;-74
2022/05/11 04:29:09;;;;;;;8.60;3.38;;;13.60;99.90;;;;;;5128438;27;20122;-74
2022/05/11 04:31:35;;;;;;;7.78;3.60;;;13.60;99.90;;;;;;5127415;27;20152;-75
2022/05/11 04:34:01;;;;;;;5.68;3.65;;;13.60;99.90;;;;;;5109311;27;20043;-73
2022/05/11 04:36:28;;;;;;;7.85;3.47;;;13.60;99.90;;;;;;5128458;27;20043;-75
2022/05/11 04:38:53;;;;;;;10.35;4.13;;;13.60;99.90;;;;;;5127210;27;20043;-75
2022/05/11 04:41:19;;;;;;;8.05;3.80;;;13.70;99.90;;;;;;5128553;27;20035;-75
2022/05/11 04:43:45;;;;;;;5.50;3.53;;;13.70;99.90;;;;;;5127062;27;20502;-75
2022/05/11 04:46:11;;;;;;;8.70;4.05;;;13.70;99.90;;;;;;5129399;27;20134;-75
2022/05/11 04:48:37;;;;;;;9.38;3.42;;;13.70;99.90;;;;;;5128566;27;20043;-75
2022/05/11 04:51:04;;;;;;;7.25;3.47;;;13.70;99.90;;;;;;5109785;27;20047;-75
2022/05/11 04:53:30;;;;;;;8.38;4.15;;;13.80;99.90;;;;;;5110181;27;20468;-76
2022/05/11 04:55:56;;;;;;;9.10;3.38;;;13.80;99.90;;;;;;5108828;27;20075;-77
2022/05/11 04:58:22;;;;;;;13.88;4.22;;;13.80;99.90;;;;;;5110908;27;20078;-75
2022/05/11 05:00:48;;;;;;;6.80;3.35;;;13.80;99.90;;;;;;5109551;27;20225;-75
2022/05/11 05:03:15;;;;;;;9.52;3.53;;;13.80;99.90;;;;;;5110270;27;20130;-76
2022/05/11 05:05:41;;;;;;;13.13;3.65;;;13.80;99.90;;;;;;5110004;27;20102;-76
2022/05/11 05:08:08;;;;;;;7.85;3.85;;;13.90;99.90;;;;;;5110371;27;20082;-75
2022/05/11 05:10:34;;;;;;;9.45;3.10;;;13.90;99.90;;;;;;5128283;27;20035;-75
2022/05/11 05:13:06;;;;;;;5.05;3.38;;;13.90;99.90;;;;;;5108853;27;20058;-75
2022/05/11 05:15:33;;;;;;;7.57;3.42;;;13.90;99.90;;;;;;5094106;27;20377;-75
2022/05/11 05:18:01;;;;;;;8.43;4.05;;;13.90;99.90;;;;;;5109118;27;20506;-76
2022/05/11 05:20:26;;;;;;;9.18;3.38;;;13.90;99.90;;;;;;5109488;27;20043;-75
2022/05/11 05:22:52;;;;;;;6.82;3.25;;;14.00;99.90;;;;;;5058911;27;20043;-75
2022/05/11 05:25:18;;;;;;;7.45;3.75;;;14.00;99.90;;;;;;5075719;27;20039;-74
2022/05/11 05:27:44;;;;;;;7.30;3.55;;;14.00;99.90;;;;;;5110088;27;20387;-76
2022/05/11 05:32:54;;;;;;;8.23;3.15;;;14.00;99.90;;;;;;5109832;27;20551;-76
2022/05/11 05:35:21;;;;;;;7.13;3.47;;;14.20;99.90;;;;;;5091648;27;20127;-76
2022/05/11 05:37:47;;;;;;;7.00;3.65;;;14.10;99.90;;;;;;5092517;27;20371;-76
2022/05/11 05:40:14;;;;;;;6.97;3.13;;;14.20;99.90;;;;;;5108914;27;20039;-76
2022/05/11 05:42:40;;;;;;;6.95;3.28;;;14.10;99.90;;;;;;5107827;27;20081;-75
2022/05/11 05:45:07;;;;;;;6.50;3.00;;;14.10;99.90;;;;;;5109350;27;20051;-75
2022/05/11 05:47:33;;;;;;;9.23;3.90;;;14.10;99.90;;;;;;5126098;27;20100;-75
2022/05/11 05:49:59;;;;;;;10.13;3.35;;;14.20;99.90;;;;;;5093002;27;20130;-77
2022/05/11 05:52:25;;;;;;;9.45;3.85;;;14.30;99.90;;;;;;5091242;27;20474;-77
2022/05/11 05:54:54;;;;;;;7.70;3.20;;;14.30;99.90;;;;;;5091913;27;20046;-74
2022/05/11 05:57:20;;;;;;;9.50;3.65;;;14.30;99.90;;;;;;5092260;27;20050;-76
2022/05/11 05:59:46;;;;;;;9.75;3.30;;;14.40;99.90;;;;;;5074883;27;20129;-76
2022/05/11 06:02:13;;;;;;;8.88;2.70;;;14.40;99.90;;;;;;5109741;27;20131;-76
2022/05/11 06:04:50;;;;;;;12.43;3.88;;;14.50;99.90;;;;;;5108059;27;20456;-76
2022/05/11 06:07:19;;;;;;;8.60;3.50;;;14.70;99.90;;;;;;5109586;27;20035;-76
2022/05/11 06:09:45;;;;;;;8.48;3.42;;;14.70;99.90;;;;;;5108256;27;20031;-76
2022/05/11 06:12:13;;;;;;;10.00;3.10;;;14.70;99.90;;;;;;5091276;27;20058;-76
2022/05/11 06:14:40;;;;;;;7.18;3.17;;;14.70;99.90;;;;;;5109274;27;20051;-76
2022/05/11 06:17:18;;;;;;;8.48;3.53;;;14.70;99.90;;;;;;5107914;27;20039;-76
2022/05/11 06:19:44;;;;;;;6.20;3.05;;;14.70;99.90;;;;;;5092209;27;20057;-76
2022/05/11 06:22:10;;;;;;;8.48;3.42;;;14.80;99.90;;;;;;5108204;27;20043;-76
2022/05/11 06:24:36;;;;;;;9.98;3.60;;;14.80;99.90;;;;;;5091834;27;20096;-75
2022/05/11 06:27:02;;;;;;;8.32;3.50;;;14.90;99.90;;;;;;5091787;27;20039;-78
2022/05/11 06:29:28;;;;;;;11.90;3.40;;;15.10;99.90;;;;;;5108207;27;20083;-76
2022/05/11 06:31:54;;;;;;;10.48;2.92;;;15.20;99.90;;;;;;5091834;28;20078;-77
2022/05/11 06:34:20;;;;;;;13.23;3.70;;;15.40;99.90;;;;;;5106970;27;20492;-77
2022/05/11 06:36:46;;;;;;;6.88;3.08;;;15.40;99.90;;;;;;5091766;27;20047;-77
2022/05/11 06:39:11;;;;;;;7.75;2.97;;;15.50;99.90;;;;;;5074129;28;20058;-77
2022/05/11 06:41:38;;;;;;;6.03;3.60;;;15.60;99.90;;;;;;5108709;28;20035;-76
2022/05/11 06:44:04;;;;;;;9.48;3.15;;;15.70;99.90;;;;;;5091005;28;20051;-76
2022/05/11 06:46:32;;;;;;;9.88;3.35;;;15.80;99.90;;;;;;5107597;28;20081;-77
2022/05/11 06:48:57;;;;;;;14.90;4.13;;;15.80;99.90;;;;;;5091778;28;20043;-77
2022/05/11 06:51:23;;;;;;;11.05;3.20;;;15.90;99.90;;;;;;5128646;27;20391;-77
2022/05/11 06:59:33;;;;;;;12.50;3.50;;;15.70;99.90;;;;;;5038645;27;20092;-77
2022/05/11 07:02:03;;;;;;;13.73;4.03;;;15.70;99.90;;;;;;5131457;27;20067;-77
2022/05/11 07:04:33;;;;;;;6.80;3.22;;;15.70;99.90;;;;;;5094938;27;20394;-77
2022/05/11 07:06:59;;;;;;;7.68;3.20;;;15.70;99.90;;;;;;5112696;27;20103;-76
2022/05/11 07:09:28;;;;;;;9.48;3.28;;;15.80;99.90;;;;;;5130244;27;20055;-77
2022/05/11 07:14:39;;;;;;;9.00;4.38;;;16.00;99.90;;;;;;5098613;27;20082;-77
2022/05/11 07:17:05;;;;;;;8.10;3.10;;;16.20;99.90;;;;;;5129410;27;20403;-77
2022/05/11 07:19:33;;;;;;;8.60;3.78;;;16.20;99.90;;;;;;5112633;27;20035;-77
2022/05/11 07:22:01;;;;;;;9.80;3.33;;;16.30;99.90;;;;;;5094416;27;20043;-77
2022/05/11 07:24:26;;;;;;;9.23;3.35;;;16.30;99.90;;;;;;5112578;27;20043;-77
2022/05/11 07:26:54;;;;;;;7.72;3.30;;;16.30;99.90;;;;;;5095192;27;20175;-77
2022/05/11 07:29:20;;;;;;;11.60;4.93;;;16.30;99.90;;;;;;5111134;27;20047;-76
2022/05/11 07:31:46;;;;;;;8.32;4.00;;;16.40;99.90;;;;;;5095089;27;20054;-77
2022/05/11 07:34:13;;;;;;;11.60;3.78;;;16.40;99.90;;;;;;5093481;27;20414;-77
2022/05/11 07:36:38;;;;;;;12.50;4.15;;;16.50;99.90;;;;;;5130821;27;20928;-77
2022/05/11 07:39:04;;;;;;;8.45;3.35;;;16.50;99.90;;;;;;5093907;27;20595;-77
2022/05/11 07:41:30;;;;;;;7.95;3.47;;;16.70;99.90;;;;;;5111601;27;20062;-77
2022/05/11 07:43:57;;;;;;;9.77;3.03;;;16.80;99.90;;;;;;5111195;27;20049;-77
2022/05/11 07:46:23;;;;;;;12.02;3.55;;;17.00;99.90;;;;;;5110890;27;20087;-77
2022/05/11 07:48:49;;;;;;;12.52;2.97;;;17.30;99.90;;;;;;5111822;27;20052;-77
2022/05/11 07:51:16;;;;;;;5.80;2.38;;;17.50;99.90;;;;;;5093593;27;20042;-77
2022/05/11 07:53:44;;;;;;;13.00;3.53;;;17.70;99.90;;;;;;5111815;27;20043;-77
2022/05/11 08:01:38;;;;;;;12.13;2.42;;;18.00;99.90;;;;;;5096951;27;20486;-77
2022/05/11 08:04:04;;;;;;;13.23;3.28;;;18.10;99.90;;;;;;5128699;27;20047;-77
2022/05/11 08:06:30;;;;;;;9.95;2.25;;;18.10;99.90;;;;;;5130377;27;20399;-76
2022/05/11 08:08:55;;;;;;;9.32;2.17;;;18.10;99.90;;;;;;5093899;27;20540;-76
2022/05/11 08:11:21;;;;;;;12.75;2.83;;;18.40;99.90;;;;;;5111626;27;20043;-77
2022/05/11 08:13:47;;;;;;;9.32;1.67;;;18.10;99.90;;;;;;5130036;27;20087;-77
2022/05/11 08:16:12;;;;;;;13.55;2.28;;;18.00;99.90;;;;;;5095860;27;20050;-76
2022/05/11 08:18:38;;;;;;;13.93;2.28;;;17.90;99.90;;;;;;5132070;27;20035;-77
2022/05/11 08:21:04;;;;;;;7.13;1.88;;;18.00;99.90;;;;;;5112490;27;20390;-77
2022/05/11 08:23:31;;;;;;;10.70;2.38;;;18.10;99.90;;;;;;5114277;27;20039;-77
2022/05/11 08:25:57;;;;;;;9.77;2.00;;;18.30;99.90;;;;;;5094642;27;20166;-77
2022/05/11 08:28:25;;;;;;;9.18;2.15;;;18.60;99.90;;;;;;5113387;27;20047;-77
2022/05/11 08:33:39;;;;;;;6.50;2.15;;;19.00;99.90;;;;;;5129394;27;20490;-76
2022/05/11 08:36:16;;;;;;;7.25;1.85;;;19.10;99.90;;;;;;5131277;27;20398;-76
2022/05/11 08:38:44;;;;;;;5.68;1.75;;;18.90;99.90;;;;;;5129642;27;20118;-76
2022/05/11 08:41:34;;;;;;;10.52;1.92;;;18.80;99.90;;;;;;5131457;27;20032;-76
2022/05/11 08:44:11;;;;;;;12.70;2.38;;;18.80;99.90;;;;;;5130121;27;20043;-77
2022/05/11 08:46:47;;;;;;;8.77;2.50;;;18.80;99.90;;;;;;5111390;27;20050;-77
2022/05/11 08:49:25;;;;;;;8.35;1.77;;;18.80;99.90;;;;;;5111845;27;20051;-77
2022/05/11 08:52:05;;;;;;;8.80;2.05;;;18.80;99.90;;;;;;5109603;27;20087;-76
2022/05/11 08:54:48;;;;;;;9.30;2.47;;;18.80;99.90;;;;;;5110281;27;20055;-76
2022/05/11 08:57:23;;;;;;;11.73;2.45;;;18.70;99.90;;;;;;5110814;27;20051;-76
2022/05/11 08:59:51;;;;;;;11.60;2.10;;;18.70;99.90;;;;;;5127781;27;20063;-76
2022/05/11 09:02:38;;;;;;;6.50;1.40;;;18.70;99.90;;;;;;5110877;27;20035;-76
2022/05/11 09:05:05;;;;;;;11.13;2.53;;;18.80;99.90;;;;;;5093113;27;20597;-76
2022/05/11 09:07:38;;;;;;;6.63;1.55;;;18.90;99.90;;;;;;5110202;27;20096;-76
2022/05/11 09:10:05;;;;;;;12.27;1.65;;;18.90;99.90;;;;;;5093641;27;20039;-76
2022/05/11 09:12:31;;;;;;;8.25;1.60;;;18.80;99.90;;;;;;5091539;27;20055;-76
2022/05/11 09:14:59;;;;;;;7.18;1.70;;;18.80;99.90;;;;;;5110591;27;20074;-76
2022/05/11 09:17:26;;;;;;;7.65;1.48;;;18.90;99.90;;;;;;5092655;27;20050;-76
2022/05/11 09:20:12;;;;;;;6.85;1.55;;;18.80;99.90;;;;;;5110391;27;20035;-76
2022/05/11 09:22:42;;;;;;;14.65;2.08;;;18.80;99.90;;;;;;5109321;27;20055;-76
2022/05/11 09:25:24;;;;;;;9.57;1.70;;;18.70;99.90;;;;;;5109339;27;20062;-76
2022/05/11 09:27:51;;;;;;;7.45;1.90;;;18.80;99.90;;;;;;5110494;27;20103;-76
2022/05/11 09:30:19;;;;;;;10.50;1.95;;;19.00;99.90;;;;;;5108869;27;20039;-76
2022/05/11 09:32:46;;;;;;;6.05;1.45;;;19.60;99.90;;;;;;5092670;27;20058;-76
2022/05/11 09:35:17;;;;;;;7.93;1.70;;;19.40;99.90;;;;;;5092481;27;20083;-76
2022/05/11 09:37:44;;;;;;;9.45;2.10;;;19.70;99.90;;;;;;5127644;27;20039;-76
2022/05/11 09:40:13;;;;;;;7.32;1.60;;;20.00;99.90;;;;;;5093174;27;20049;-76
2022/05/11 09:42:54;;;;;;;7.65;1.63;;;20.20;99.90;;;;;;5108767;27;20047;-76
2022/05/11 09:45:39;;;;;;;8.25;2.28;;;20.30;98.20;;;;;;5128520;27;20436;-76
2022/05/11 09:48:13;;;;;;;5.05;1.40;;;20.30;97.70;;;;;;5109408;27;20083;-76
2022/05/11 09:50:41;;;;;;;9.60;2.00;;;20.30;98.30;;;;;;5092057;27;20043;-76
2022/05/11 09:53:22;;;;;;;5.75;1.52;;;20.10;99.40;;;;;;5109805;27;20498;-76
2022/05/11 09:55:49;;;;;;;7.93;1.60;;;19.90;98.70;;;;;;5108428;27;20050;-76
2022/05/11 09:58:27;;;;;;;10.40;2.80;;;19.70;99.90;;;;;;5092472;27;20149;-76
2022/05/11 10:00:53;;;;;;;9.88;1.90;;;19.70;99.80;;;;;;5092438;27;20047;-76
2022/05/11 10:03:28;;;;;;;4.18;1.58;;;19.70;99.90;;;;;;5058060;27;20084;-76
2022/05/11 10:05:54;;;;;;;7.72;1.50;;;19.80;99.90;;;;;;5109894;27;20190;-76
2022/05/11 10:08:33;;;;;;;7.75;1.75;;;19.90;99.90;;;;;;5108531;27;20402;-76
2022/05/11 10:11:04;;;;;;;10.00;2.03;;;19.70;99.20;;;;;;5092252;27;20054;-77
2022/05/11 10:13:32;;;;;;;9.98;1.40;;;19.60;99.30;;;;;;5108709;27;20401;-77
2022/05/11 10:22:18;;;;;;;7.15;1.42;;;20.00;98.50;;;;;;5108192;27;20059;-76
2022/05/11 10:25:05;;;;;;;7.88;2.75;;;19.80;95.10;;;;;;5005794;28;20053;-76
2022/05/11 10:28:08;;;;;;;11.38;2.22;;;19.90;96.40;;;;;;5024455;28;20483;-76
2022/05/11 10:30:58;;;;;;;6.13;1.63;;;20.00;96.30;;;;;;5112552;27;20526;-76
2022/05/11 10:33:53;;;;;;;9.95;1.58;;;20.20;95.80;;;;;;5108142;27;20074;-76
2022/05/11 10:36:27;;;;;;;5.25;1.35;;;20.00;95.90;;;;;;5092595;27;20390;-76
2022/05/11 10:39:07;;;;;;;6.88;1.05;;;19.80;94.70;;;;;;5108517;28;20505;-76
2022/05/11 10:41:57;;;;;;;5.70;1.00;;;19.60;97.60;;;;;;5108501;27;20043;-76
2022/05/11 10:44:32;;;;;;;10.85;1.42;;;19.60;97.70;;;;;;5109384;28;20047;-76
2022/05/11 10:47:26;;;;;;;7.85;1.80;;;19.60;98.50;;;;;;5126465;28;20097;-76
2022/05/11 10:49:57;;;;;;;6.15;1.30;;;19.50;97.30;;;;;;5108358;28;20043;-76
2022/05/11 10:52:51;;;;;;;5.85;1.52;;;19.50;98.50;;;;;;5108836;28;20051;-77
2022/05/11 10:55:23;;;;;;;5.15;1.48;;;19.70;94.80;;;;;;5126049;28;20043;-76
2022/05/11 10:58:26;;;;;;;5.18;1.60;;;19.80;97.10;;;;;;5092024;28;20053;-75
2022/05/11 11:01:12;;;;;;;4.85;1.15;;;19.80;94.80;;;;;;5091328;28;20055;-75
2022/05/11 11:03:59;;;;;;;7.57;1.92;;;19.90;95.00;;;;;;5090215;28;20054;-76
2022/05/11 11:10:00;;;;;;;4.75;1.20;;;20.50;94.00;;;;;;5108591;28;20116;-76
2022/05/11 11:12:46;;;;;;;;;;;20.80;90.80;;;;;;5105461;28;20128;-77
2022/05/11 11:15:16;;;;;;;9.55;1.83;;;20.90;84.80;;;;;;5108428;28;19920;-78
2022/05/11 11:17:43;;;;;;;7.63;1.35;;;21.00;87.80;;;;;;5091556;28;20051;-78
2022/05/11 11:20:12;;;;;;;8.63;1.80;;;21.00;93.10;;;;;;5073806;28;20039;-77
2022/05/11 11:23:08;;;;;;;7.22;1.50;;;21.10;92.80;;;;;;5091716;28;20043;-77
2022/05/11 11:25:51;;;;;;;6.07;1.65;;;21.20;80.90;;;;;;5107320;28;20051;-77
2022/05/11 11:28:19;;;;;;;6.80;1.75;;;21.30;89.70;;;;;;5108329;28;20509;-77
2022/05/11 11:31:00;;;;;;;4.68;1.90;;;21.60;91.20;;;;;;5091763;28;20055;-77
2022/05/11 11:33:31;;;;;;;16.45;2.15;;;21.50;82.10;;;;;;5107589;28;20584;-77
2022/05/11 11:36:28;;;;;;;9.98;1.65;;;21.30;90.50;;;;;;5091797;27;20467;-77
2022/05/11 11:38:58;;;;;;;7.40;2.05;;;21.00;87.40;;;;;;5096305;27;20087;-77
2022/05/11 11:41:28;;;;;;;8.07;2.05;;;20.80;89.40;;;;;;5111280;27;20047;-77
2022/05/11 11:43:57;;;;;;;5.28;1.35;;;20.50;92.30;;;;;;5111915;27;20047;-77
2022/05/11 11:46:41;;;;;;;9.10;1.65;;;20.40;93.70;;;;;;5111003;27;20461;-77
2022/05/11 11:49:19;;;;;;;8.25;1.70;;;20.70;93.60;;;;;;5095339;27;20386;-78
2022/05/11 11:51:51;;;;;;;7.65;1.52;;;20.80;86.90;;;;;;5094068;27;20051;-76
2022/05/11 11:54:37;;;;;;;11.77;2.38;;;20.90;90.10;;;;;;5093832;27;20044;-76
2022/05/11 11:57:22;;;;;;;5.57;1.27;;;21.10;88.70;;;;;;5112151;27;20051;-77
2022/05/11 11:59:49;;;;;;;5.68;1.15;;;21.30;83.90;;;;;;5111213;27;20035;-77
2022/05/11 12:02:23;;;;;;;4.82;1.27;;;21.40;87.00;;;;;;5111807;27;20039;-76
2022/05/11 12:05:10;;;;;;;3.88;0.90;;;20.30;71.80;;;;;;5111547;27;20051;-77
2022/05/11 12:16:20;;;;;;;4.72;1.08;;;21.60;75.10;;;;;;5110645;27;20134;-77
2022/05/11 12:18:49;;;;;;;4.88;1.10;;;21.40;79.60;;;;;;5112092;27;20039;-76
2022/05/11 12:21:36;;;;;;;6.03;1.13;;;21.30;80.20;;;;;;5111051;27;20116;-77
2022/05/11 12:24:06;;;;;;;8.13;1.00;;;21.40;71.10;;;;;;5110674;27;20164;-77
2022/05/11 12:26:35;;;;;;;2.47;0.57;;;21.40;73.90;;;;;;5130194;27;20047;-77
2022/05/11 12:31:57;;;;;;;4.70;0.50;;;21.20;69.00;;;;;;5130278;27;20163;-77
2022/05/11 12:34:26;;;;;;;4.78;0.50;;;21.00;69.40;;;;;;5110863;27;20088;-77
2022/05/11 12:36:53;;;;;;;4.20;0.55;;;20.90;68.80;;;;;;5129089;27;20067;-77
2022/05/11 12:39:35;;;;;;;4.47;0.52;;;20.90;66.20;;;;;;5111387;27;20059;-77
2022/05/11 12:42:01;;;;;;;5.43;1.10;;;21.00;60.30;;;;;;5109750;27;20050;-77
2022/05/11 12:44:30;;;;;;;5.47;0.50;;;21.10;66.00;;;;;;5111369;27;20367;-77
2022/05/11 12:46:59;;;;;;;6.55;0.90;;;21.10;64.40;;;;;;5110248;27;20555;-77
2022/05/11 12:49:26;;;;;;;4.75;0.52;;;21.30;63.60;;;;;;5109964;27;20417;-77
2022/05/11 12:51:55;;;;;;;4.40;0.80;;;21.40;65.40;;;;;;5110554;27;20051;-77
2022/05/11 12:54:25;;;;;;;3.28;0.63;;;21.70;64.60;;;;;;5092402;27;20043;-77
2022/05/11 12:57:08;;;;;;;2.72;0.68;;;22.00;63.30;;;;;;5110912;27;20035;-77
2022/05/11 12:59:35;;;;;;;4.53;0.90;;;22.20;57.00;;;;;;5109742;27;20047;-77
2022/05/11 13:02:21;;;;;;;1.27;0.47;;;22.10;60.20;;;;;;5093908;27;20066;-77
2022/05/11 13:04:59;;;;;;;8.68;0.57;;;22.30;54.30;;;;;;5110410;27;20082;-77
2022/05/11 13:07:40;;;;;;;2.05;0.50;;;22.30;55.70;;;;;;5109680;27;20053;-77
2022/05/11 13:10:08;;;;;;;2.70;0.80;;;22.50;55.70;;;;;;5110612;27;20051;-77
2022/05/11 13:12:36;;;;;;;8.82;0.57;;;22.70;54.00;;;;;;5109273;27;20043;-77
2022/05/11 13:15:02;;;;;;;4.13;0.70;;;22.70;53.10;;;;;;5128656;27;20536;-76
2022/05/11 13:17:39;;;;;;;6.57;0.90;;;22.70;52.80;;;;;;5093288;27;20043;-77
2022/05/11 13:20:25;;;;;;;4.70;1.20;;;22.70;50.90;;;;;;5108923;27;20087;-76
2022/05/11 13:22:53;;;;;;;5.78;0.90;;;22.70;50.40;;;;;;5110551;27;20051;-77
2022/05/11 13:25:49;;;;;;;1.92;0.60;;;22.80;52.20;;;;;;5092284;27;20039;-77
2022/05/11 13:28:25;;;;;;;6.93;0.75;;;22.80;49.20;;;;;;5109679;27;20043;-77
2022/05/11 13:30:54;;;;;;;5.30;0.98;;;22.80;51.80;;;;;;5110201;27;20126;-77
2022/05/11 13:33:34;;;;;;;8.63;0.95;;;22.70;51.90;;;;;;5108631;27;20040;-77
2022/05/11 13:36:32;;;;;;;4.43;1.05;;;22.40;52.50;;;;;;5128412;27;20578;-76
2022/05/11 13:39:10;;;;;;;6.40;1.10;;;22.20;53.40;;;;;;5097016;27;20372;-77
2022/05/11 13:41:41;;;;;;;10.40;0.82;;;21.90;55.70;;;;;;5127048;27;20047;-76
2022/05/11 13:44:13;;;;;;;8.77;1.52;;;21.80;56.30;;;;;;5093118;27;20043;-77
2022/05/11 13:49:32;;;;;;;5.43;1.02;;;21.60;58.10;;;;;;5108985;27;20627;-76
2022/05/11 13:52:00;;;;;;;6.07;1.40;;;21.50;59.40;;;;;;5092710;27;20074;-76
2022/05/11 13:54:40;;;;;;;6.72;1.45;;;21.30;61.50;;;;;;5108626;27;20128;-77